Time;durP1;ratioP1;P1;durP2;ratioP2;P2;SDS_P1;SDS_P2;PMS_P1;PMS_P2;Temp;Humidity;BMP_temperature;BMP_pressure;BME280_temperature;BME280_humidity;BME280_pressure;Samples;Min_cycle;Max_cycle;Signal;HPM_P1;HPM_P2
2021/06/29 00:04:02;;;;;;;4.72;3.35;;;;;;;18.91;85.85;99573.28;2148379;41;20424;-82
2021/06/29 00:05:37;;;;;;;7.07;3.33;;;;;;;18.93;85.86;99572.09;2159227;41;20743;-80
2021/06/29 00:07:09;;;;;;;4.72;3.15;;;;;;;18.92;85.79;99570.41;2176745;40;20032;-81
2021/06/29 00:08:41;;;;;;;4.63;3.03;;;;;;;18.90;85.65;99571.63;2194905;40;20651;-80
2021/06/29 00:10:13;;;;;;;5.55;3.28;;;;;;;18.89;85.50;99561.88;2223649;40;23231;-80
2021/06/29 00:11:46;;;;;;;5.55;3.00;;;;;;;18.87;85.82;99559.34;2228439;40;20292;-81
2021/06/29 00:13:18;;;;;;;5.22;2.92;;;;;;;18.88;85.86;99549.38;2228019;40;20029;-81
2021/06/29 00:14:50;;;;;;;4.20;2.58;;;;;;;18.84;85.41;99557.91;2226959;40;20060;-80
2021/06/29 00:16:22;;;;;;;5.47;2.85;;;;;;;18.77;85.32;99562.50;2228777;40;20397;-83
2021/06/29 00:17:54;;;;;;;5.53;2.78;;;;;;;18.70;85.03;99573.34;2222820;40;20040;-83
2021/06/29 00:19:27;;;;;;;4.68;2.55;;;;;;;18.66;85.04;99582.91;2221561;40;20028;-82
2021/06/29 00:20:58;;;;;;;4.28;2.88;;;;;;;18.61;84.56;99581.88;2222374;40;20037;-81
2021/06/29 00:22:30;;;;;;;5.60;2.78;;;;;;;18.53;85.00;99589.16;2221349;40;20041;-81
2021/06/29 00:24:02;;;;;;;5.53;2.78;;;;;;;18.52;85.15;99592.91;2225228;40;20028;-81
2021/06/29 00:25:33;;;;;;;4.95;2.67;;;;;;;18.52;84.81;99598.31;2219953;40;20048;-83
2021/06/29 00:27:05;;;;;;;4.80;2.85;;;;;;;18.48;84.80;99597.09;2223938;40;20028;-81
2021/06/29 00:28:38;;;;;;;5.68;2.83;;;;;;;18.42;85.05;99606.00;2225546;40;20037;-82
2021/06/29 00:30:10;;;;;;;5.15;2.45;;;;;;;18.37;85.35;99613.94;2224076;40;20037;-82
2021/06/29 00:31:42;;;;;;;5.93;2.65;;;;;;;18.27;85.51;99606.22;2225578;40;20096;-83
2021/06/29 00:33:14;;;;;;;4.18;2.55;;;;;;;18.29;85.73;99616.84;2227510;40;20032;-83
2021/06/29 00:34:46;;;;;;;4.38;2.55;;;;;;;18.27;85.34;99610.78;2227691;40;20033;-82
2021/06/29 00:36:18;;;;;;;4.88;2.47;;;;;;;18.22;85.45;99609.56;2226161;40;20028;-80
2021/06/29 00:37:50;;;;;;;4.25;2.28;;;;;;;18.27;86.05;99613.50;2226772;40;20029;-82
2021/06/29 00:39:21;;;;;;;4.75;3.00;;;;;;;18.30;85.67;99611.22;2227508;40;20049;-81
2021/06/29 00:40:54;;;;;;;5.53;3.08;;;;;;;18.23;85.85;99608.47;2221546;40;20042;-81
2021/06/29 00:42:24;;;;;;;4.28;2.90;;;;;;;18.24;85.72;99617.44;2223192;40;20054;-81
2021/06/29 00:43:56;;;;;;;5.75;3.10;;;;;;;18.29;85.77;99623.06;2227474;40;20047;-81
2021/06/29 00:45:27;;;;;;;4.53;3.20;;;;;;;18.36;85.62;99625.78;2227359;40;20060;-83
2021/06/29 00:46:59;;;;;;;6.15;3.70;;;;;;;18.38;85.74;99624.53;2223543;40;20183;-83
2021/06/29 00:48:31;;;;;;;5.13;3.35;;;;;;;18.42;85.52;99624.94;2221113;40;20018;-81
2021/06/29 00:50:03;;;;;;;4.70;2.72;;;;;;;18.46;85.15;99631.63;2222117;40;20082;-84
2021/06/29 00:51:35;;;;;;;6.18;3.15;;;;;;;18.46;84.94;99633.50;2222738;40;20037;-82
2021/06/29 00:53:09;;;;;;;5.50;3.50;;;;;;;18.42;85.29;99638.47;2222508;40;20364;-86
2021/06/29 00:54:42;;;;;;;4.47;2.72;;;;;;;18.40;85.08;99637.88;2227100;40;20040;-83
2021/06/29 00:56:14;;;;;;;4.47;2.80;;;;;;;18.44;85.22;99631.00;2227872;40;20029;-82
2021/06/29 00:57:50;;;;;;;5.65;3.28;;;;;;;18.46;85.10;99626.22;2228617;40;20021;-82
2021/06/29 00:59:22;;;;;;;4.53;2.55;;;;;;;18.46;85.10;99630.81;2227905;40;20037;-85
2021/06/29 01:00:54;;;;;;;5.18;2.88;;;;;;;18.48;84.83;99634.13;2223853;40;20033;-80
2021/06/29 01:02:25;;;;;;;4.07;2.58;;;;;;;18.45;84.88;99634.56;2221606;40;20060;-83
2021/06/29 01:03:57;;;;;;;4.50;2.65;;;;;;;18.44;84.84;99633.69;2226463;40;20057;-82
2021/06/29 01:05:30;;;;;;;5.43;2.63;;;;;;;18.46;84.56;99637.03;2226486;40;20043;-82
2021/06/29 01:07:01;;;;;;;3.65;2.20;;;;;;;18.51;84.75;99637.28;2221215;40;20049;-81
2021/06/29 01:08:33;;;;;;;5.40;2.70;;;;;;;18.52;84.70;99636.19;2226419;40;20033;-82
2021/06/29 01:10:06;;;;;;;6.15;3.95;;;;;;;18.51;84.64;99634.56;2223896;40;20029;-85
2021/06/29 01:11:38;;;;;;;6.57;3.58;;;;;;;18.49;84.98;99631.22;2221271;40;20034;-82
2021/06/29 01:13:10;;;;;;;5.68;4.05;;;;;;;18.50;84.70;99643.72;2224758;40;20157;-85
2021/06/29 01:14:42;;;;;;;5.70;3.10;;;;;;;18.53;85.05;99629.75;2225503;40;20048;-83
2021/06/29 01:16:15;;;;;;;6.15;3.90;;;;;;;18.58;84.76;99628.31;2226255;40;20040;-80
2021/06/29 01:17:45;;;;;;;10.82;4.68;;;;;;;18.59;84.96;99609.16;2225377;40;20041;-84
2021/06/29 01:19:19;;;;;;;6.43;3.45;;;;;;;18.61;84.60;99607.06;2220163;40;20032;-82
2021/06/29 01:20:53;;;;;;;5.03;3.17;;;;;;;18.67;84.65;99600.00;2220477;40;20041;-85
2021/06/29 01:22:27;;;;;;;7.80;4.05;;;;;;;18.71;84.81;99598.50;2227120;40;20452;-83
2021/06/29 01:23:58;;;;;;;6.18;3.60;;;;;;;18.70;84.83;99589.56;2222987;40;20443;-83
2021/06/29 01:25:31;;;;;;;4.68;3.03;;;;;;;18.68;84.84;99591.66;2219455;40;20089;-85
2021/06/29 01:27:18;;;;;;;6.30;3.80;;;;;;;18.68;84.78;99596.25;2220476;40;20103;-85
2021/06/29 01:28:59;;;;;;;4.63;3.25;;;;;;;18.66;85.06;99591.03;2221143;40;20264;-85
2021/06/29 01:32:20;;;;;;;6.25;3.88;;;;;;;18.55;84.82;99597.09;2227243;40;20057;-82
2021/06/29 01:33:52;;;;;;;7.07;3.65;;;;;;;18.53;84.98;99582.91;2227995;40;20036;-83
2021/06/29 01:35:24;;;;;;;5.55;3.40;;;;;;;18.45;84.90;99570.44;2226674;40;20040;-84
2021/06/29 01:36:57;;;;;;;6.03;3.28;;;;;;;18.45;85.11;99570.44;2226953;40;20048;-83
2021/06/29 01:38:29;;;;;;;5.85;3.08;;;;;;;18.45;84.78;99573.13;2226895;40;20086;-84
2021/06/29 01:40:02;;;;;;;6.18;3.20;;;;;;;18.49;84.67;99582.50;2226493;40;20368;-84
2021/06/29 01:41:35;;;;;;;4.07;2.85;;;;;;;18.48;84.61;99580.00;2226415;40;20043;-85
2021/06/29 01:43:06;;;;;;;5.70;2.85;;;;;;;18.47;84.19;99581.88;2219448;40;20029;-85
2021/06/29 01:44:38;;;;;;;6.80;3.53;;;;;;;18.50;84.19;99584.19;2221235;40;20041;-85
2021/06/29 01:46:10;;;;;;;6.45;3.50;;;;;;;18.51;84.41;99585.00;2221594;40;20100;-83
2021/06/29 01:47:52;;;;;;;6.55;3.58;;;;;;;18.50;84.29;99584.19;2220511;40;20046;-85
2021/06/29 01:49:26;;;;;;;5.43;2.70;;;;;;;18.48;84.42;99588.97;2219713;40;20588;-82
2021/06/29 01:50:57;;;;;;;8.45;4.00;;;;;;;18.49;84.27;99590.63;2220968;40;20185;-85
2021/06/29 01:52:30;;;;;;;5.47;2.92;;;;;;;18.51;84.22;99588.56;2221594;40;20032;-85
2021/06/29 01:54:02;;;;;;;6.25;2.88;;;;;;;18.51;83.96;99596.69;2220962;40;20045;-85
2021/06/29 01:55:33;;;;;;;5.68;3.50;;;;;;;18.54;83.84;99595.41;2221873;40;20040;-86
2021/06/29 01:57:05;;;;;;;6.05;2.83;;;;;;;18.52;84.12;99575.84;2222082;40;20058;-85
2021/06/29 01:58:37;;;;;;;7.72;3.75;;;;;;;18.57;83.89;99580.63;2221943;40;20045;-85
2021/06/29 02:00:11;;;;;;;5.90;4.20;;;;;;;18.51;83.73;99571.47;2222152;40;20036;-87
2021/06/29 02:01:44;;;;;;;5.90;3.80;;;;;;;18.48;83.69;99567.31;2221377;40;20038;-84
2021/06/29 02:03:15;;;;;;;6.53;4.78;;;;;;;18.43;83.91;99564.38;2221792;40;20041;-85
2021/06/29 02:04:46;;;;;;;5.50;2.92;;;;;;;18.45;84.41;99573.13;2221684;40;20029;-85
2021/06/29 02:06:18;;;;;;;4.93;3.13;;;;;;;18.47;84.35;99575.63;2221160;40;20025;-84
2021/06/29 02:07:51;;;;;;;7.05;3.42;;;;;;;18.55;84.13;99591.69;2220750;40;20037;-83
2021/06/29 02:09:22;;;;;;;7.18;3.40;;;;;;;18.59;84.20;99602.91;2221317;40;20025;-85
2021/06/29 02:10:54;;;;;;;5.63;3.22;;;;;;;18.64;84.44;99622.91;2221397;40;20033;-86
2021/06/29 02:12:25;;;;;;;5.90;3.30;;;;;;;18.66;84.14;99636.22;2221471;40;20038;-83
2021/06/29 02:13:57;;;;;;;5.43;3.33;;;;;;;18.66;83.86;99645.16;2221437;40;20040;-82
2021/06/29 02:15:28;;;;;;;5.68;3.50;;;;;;;18.66;83.71;99663.28;2221600;40;20044;-85
2021/06/29 02:16:59;;;;;;;5.50;3.63;;;;;;;18.67;84.09;99664.97;2221366;40;20056;-85
2021/06/29 02:18:31;;;;;;;5.95;3.75;;;;;;;18.70;84.03;99675.38;2220962;40;20025;-86
2021/06/29 02:20:04;;;;;;;6.95;3.80;;;;;;;18.68;84.32;99674.75;2219900;40;20041;-83
2021/06/29 02:21:36;;;;;;;6.20;3.55;;;;;;;18.64;84.19;99689.72;2220416;40;20065;-85
2021/06/29 02:23:09;;;;;;;5.63;3.67;;;;;;;18.59;84.69;99697.66;2220760;40;20048;-83
2021/06/29 02:24:41;;;;;;;6.50;4.13;;;;;;;18.58;84.87;99704.91;2221372;40;20026;-85
2021/06/29 02:26:13;;;;;;;11.23;4.57;;;;;;;18.53;85.24;99710.94;2220467;40;20045;-85
2021/06/29 02:27:45;;;;;;;6.82;4.03;;;;;;;18.50;85.58;99713.22;2220410;40;20113;-84
2021/06/29 02:29:16;;;;;;;7.97;4.00;;;;;;;18.52;85.76;99703.03;2220277;40;20136;-84
2021/06/29 02:30:48;;;;;;;6.22;3.90;;;;;;;18.52;85.54;99700.34;2220163;40;20094;-83
2021/06/29 02:32:18;;;;;;;8.10;4.07;;;;;;;18.56;85.75;99707.03;2220658;40;20037;-83
2021/06/29 02:33:50;;;;;;;7.85;4.30;;;;;;;18.52;85.68;99706.56;2220590;40;20045;-84
2021/06/29 02:35:21;;;;;;;7.88;4.70;;;;;;;18.50;85.84;99714.09;2221758;40;20030;-84
2021/06/29 02:36:53;;;;;;;5.88;3.78;;;;;;;18.48;85.52;99710.75;2226892;40;20040;-81
2021/06/29 02:38:27;;;;;;;5.97;3.45;;;;;;;18.51;85.77;99720.31;2225152;40;20584;-81
2021/06/29 02:39:58;;;;;;;5.18;3.45;;;;;;;18.50;85.88;99711.38;2225085;40;20031;-82
2021/06/29 02:41:30;;;;;;;5.80;3.95;;;;;;;18.52;85.79;99700.34;2221872;40;20038;-84
2021/06/29 02:43:02;;;;;;;6.75;4.07;;;;;;;18.55;85.47;99698.06;2219062;40;20049;-82
2021/06/29 02:44:35;;;;;;;5.63;3.40;;;;;;;18.62;85.75;99695.34;2220538;40;20021;-81
2021/06/29 02:46:07;;;;;;;5.85;4.20;;;;;;;18.65;85.53;99685.97;2218071;40;20087;-80
2021/06/29 02:47:39;;;;;;;6.60;3.72;;;;;;;18.68;85.41;99677.47;2218934;40;20021;-80
2021/06/29 02:49:11;;;;;;;5.97;3.58;;;;;;;18.71;85.08;99682.44;2223093;40;20039;-82
2021/06/29 02:50:43;;;;;;;5.70;3.58;;;;;;;18.72;84.80;99678.69;2222816;40;20042;-80
2021/06/29 02:52:14;;;;;;;6.85;3.33;;;;;;;18.76;84.58;99677.25;2220061;40;20053;-81
2021/06/29 02:53:47;;;;;;;6.00;3.20;;;;;;;18.76;84.43;99676.41;2222551;40;20360;-80
2021/06/29 02:55:19;;;;;;;5.28;3.60;;;;;;;18.74;84.62;99679.31;2219798;40;20452;-81
2021/06/29 02:56:50;;;;;;;7.53;4.28;;;;;;;18.72;84.61;99686.81;2217511;40;20048;-82
2021/06/29 02:58:22;;;;;;;6.68;4.28;;;;;;;18.68;84.83;99682.88;2221170;40;20036;-80
2021/06/29 02:59:53;;;;;;;7.28;4.28;;;;;;;18.67;84.67;99686.63;2223516;40;20033;-83
2021/06/29 03:01:25;;;;;;;5.47;3.50;;;;;;;18.64;84.79;99687.03;2221437;40;20033;-81
2021/06/29 03:02:57;;;;;;;6.38;4.25;;;;;;;18.64;84.90;99676.19;2216204;40;20034;-81
2021/06/29 03:04:27;;;;;;;11.18;5.63;;;;;;;18.63;84.95;99671.81;2223523;40;20037;-81
2021/06/29 03:05:59;;;;;;;6.78;4.93;;;;;;;18.61;85.11;99672.03;2224480;40;20056;-82
2021/06/29 03:07:31;;;;;;;7.10;5.22;;;;;;;18.65;85.01;99664.34;2215927;40;20033;-81
2021/06/29 03:09:16;;;;;;;6.82;5.10;;;;;;;18.65;84.70;99667.88;2226066;40;20028;-81
2021/06/29 03:10:49;;;;;;;8.15;4.93;;;;;;;18.68;84.57;99672.88;2225139;40;20117;-82
2021/06/29 03:12:29;;;;;;;7.80;5.03;;;;;;;18.70;84.50;99670.78;2227176;40;20014;-80
2021/06/29 03:14:00;;;;;;;7.68;5.22;;;;;;;18.65;84.39;99677.88;2224431;40;20044;-79
2021/06/29 03:15:31;;;;;;;5.47;4.30;;;;;;;18.61;84.53;99682.84;2223352;40;20018;-79
2021/06/29 03:17:04;;;;;;;6.38;4.10;;;;;;;18.58;84.60;99674.31;2221980;40;20029;-79
2021/06/29 03:18:35;;;;;;;4.85;3.50;;;;;;;18.57;84.69;99672.66;2226874;40;20041;-79
2021/06/29 03:20:10;;;;;;;5.40;3.08;;;;;;;18.55;84.73;99665.56;2227571;40;20033;-79
2021/06/29 03:21:40;;;;;;;8.23;3.70;;;;;;;18.53;84.61;99667.66;2225955;40;20048;-79
2021/06/29 03:23:12;;;;;;;5.15;3.60;;;;;;;18.51;84.86;99667.03;2227598;40;20029;-79
2021/06/29 03:24:45;;;;;;;7.72;3.55;;;;;;;18.50;84.96;99659.09;2226797;40;20036;-81
2021/06/29 03:26:16;;;;;;;6.43;4.20;;;;;;;18.55;84.67;99665.56;2218679;40;20041;-80
2021/06/29 03:27:49;;;;;;;5.95;3.85;;;;;;;18.53;84.84;99656.81;2224666;40;20053;-79
2021/06/29 03:29:20;;;;;;;6.32;4.20;;;;;;;18.55;85.02;99656.63;2225264;40;20026;-79
2021/06/29 03:30:52;;;;;;;5.03;3.40;;;;;;;18.61;84.74;99646.84;2224392;40;20025;-79
2021/06/29 03:32:24;;;;;;;5.43;3.13;;;;;;;18.62;84.43;99640.38;2225537;40;20037;-79
2021/06/29 03:33:56;;;;;;;7.90;3.60;;;;;;;18.66;84.11;99647.06;2227239;40;20032;-79
2021/06/29 03:35:27;;;;;;;5.28;3.17;;;;;;;18.70;84.24;99649.13;2226986;40;20025;-80
2021/06/29 03:37:01;;;;;;;6.38;3.33;;;;;;;18.69;83.72;99644.75;2227641;40;20044;-79
2021/06/29 03:38:32;;;;;;;6.40;3.72;;;;;;;18.67;83.99;99635.19;2226974;40;20029;-80
2021/06/29 03:40:13;;;;;;;7.25;3.30;;;;;;;18.65;83.77;99632.69;2227644;40;20049;-80
2021/06/29 03:41:46;;;;;;;;;;;;;;;18.62;84.06;99630.41;2227589;40;20033;-79
2021/06/29 03:43:18;;;;;;;4.05;2.63;;;;;;;18.67;83.56;99632.47;2223983;40;19949;-79
2021/06/29 03:44:50;;;;;;;4.53;2.50;;;;;;;18.71;83.85;99622.88;2225191;40;20025;-79
2021/06/29 03:46:22;;;;;;;4.68;2.70;;;;;;;18.73;83.21;99615.38;2228791;40;20021;-80
2021/06/29 03:48:00;;;;;;;4.03;2.50;;;;;;;18.77;83.49;99611.22;2228018;40;20029;-80
2021/06/29 03:49:32;;;;;;;4.43;2.65;;;;;;;18.75;83.47;99607.91;2227001;40;20025;-80
2021/06/29 03:51:11;;;;;;;4.82;2.50;;;;;;;18.77;82.99;99605.81;2228675;40;20025;-81
2021/06/29 03:52:49;;;;;;;4.70;2.35;;;;;;;18.78;83.13;99596.66;2222163;40;20098;-81
2021/06/29 03:54:22;;;;;;;5.88;3.30;;;;;;;18.75;82.83;99586.25;2221365;40;20041;-83
2021/06/29 03:55:57;;;;;;;5.30;3.63;;;;;;;18.70;83.10;99577.94;2221424;40;20076;-83
2021/06/29 03:57:27;;;;;;;5.10;3.35;;;;;;;18.69;83.24;99581.69;2219920;40;20034;-80
2021/06/29 03:59:01;;;;;;;5.00;2.63;;;;;;;18.71;82.99;99577.72;2215676;40;20030;-81
2021/06/29 04:00:33;;;;;;;4.85;2.30;;;;;;;18.75;83.28;99580.00;2215328;40;20040;-81
2021/06/29 04:02:05;;;;;;;5.15;2.50;;;;;;;18.74;82.90;99579.16;2218873;40;20040;-81
2021/06/29 04:03:37;;;;;;;3.50;2.20;;;;;;;18.74;82.85;99571.03;2220456;40;20038;-81
2021/06/29 04:05:10;;;;;;;4.32;2.50;;;;;;;18.78;82.99;99579.56;2222758;40;20467;-84
2021/06/29 04:06:43;;;;;;;6.78;2.97;;;;;;;18.79;82.88;99576.66;2222953;40;20044;-83
2021/06/29 04:08:15;;;;;;;5.85;2.85;;;;;;;18.78;82.77;99574.16;2221356;40;20045;-80
2021/06/29 04:09:46;;;;;;;7.25;2.95;;;;;;;18.75;82.94;99574.59;2216134;40;20450;-83
2021/06/29 04:11:44;;;;;;;4.45;2.45;;;;;;;18.72;82.79;99578.53;2222060;40;20032;-81
2021/06/29 04:13:18;;;;;;;5.15;2.65;;;;;;;18.69;82.82;99574.38;2217271;40;20037;-81
2021/06/29 04:14:52;;;;;;;4.55;2.72;;;;;;;18.66;83.22;99573.97;2216912;40;20030;-82
2021/06/29 04:16:24;;;;;;;3.85;2.17;;;;;;;18.61;82.95;99579.19;2216633;40;20038;-81
2021/06/29 04:17:56;;;;;;;5.65;2.50;;;;;;;18.63;83.21;99582.50;2219360;40;20022;-81
2021/06/29 04:19:39;;;;;;;5.45;3.00;;;;;;;18.60;82.88;99585.63;2217068;40;20030;-81
2021/06/29 04:21:12;;;;;;;5.85;3.55;;;;;;;18.55;83.18;99592.50;2222135;40;20041;-82
2021/06/29 04:22:43;;;;;;;11.65;3.95;;;;;;;18.51;83.16;99585.84;2220321;40;20110;-80
2021/06/29 04:24:15;;;;;;;5.43;3.85;;;;;;;18.52;83.78;99586.66;2214174;40;20046;-81
2021/06/29 04:25:45;;;;;;;5.43;4.00;;;;;;;18.54;83.81;99588.13;2213874;40;20034;-82
2021/06/29 04:27:17;;;;;;;6.32;3.35;;;;;;;18.55;83.82;99589.78;2209450;40;20034;-81
2021/06/29 04:28:51;;;;;;;5.15;3.35;;;;;;;18.58;83.58;99593.94;2213659;40;20046;-81
2021/06/29 04:30:23;;;;;;;6.78;4.35;;;;;;;18.60;83.42;99591.88;2215607;40;20026;-80
2021/06/29 04:31:55;;;;;;;5.57;3.50;;;;;;;18.65;83.69;99583.97;2214038;40;20037;-81
2021/06/29 04:33:27;;;;;;;6.43;3.38;;;;;;;18.65;83.61;99581.25;2212722;40;20030;-81
2021/06/29 04:34:58;;;;;;;5.70;3.30;;;;;;;18.69;83.00;99592.50;2207873;40;20045;-83
2021/06/29 04:36:29;;;;;;;6.07;3.50;;;;;;;18.69;83.36;99592.50;2210789;40;20295;-82
2021/06/29 04:38:01;;;;;;;4.60;3.08;;;;;;;18.70;83.11;99580.63;2210939;40;20026;-81
2021/06/29 04:39:32;;;;;;;5.45;2.85;;;;;;;18.74;83.29;99576.44;2210184;40;20038;-81
2021/06/29 04:41:04;;;;;;;4.68;3.13;;;;;;;18.79;83.11;99582.09;2210952;40;20019;-82
2021/06/29 04:42:36;;;;;;;6.45;2.60;;;;;;;18.81;83.01;99571.03;2209489;40;20081;-81
2021/06/29 04:44:09;;;;;;;5.20;2.60;;;;;;;18.83;82.69;99569.78;2213510;40;20085;-80
2021/06/29 04:45:42;;;;;;;4.45;2.80;;;;;;;18.84;82.81;99559.78;2215229;40;20118;-80
2021/06/29 04:47:13;;;;;;;5.45;3.22;;;;;;;18.83;82.65;99550.81;2213762;40;20053;-81
2021/06/29 04:48:45;;;;;;;10.90;3.17;;;;;;;18.80;82.60;99553.94;2215663;40;20026;-81
2021/06/29 04:50:18;;;;;;;6.50;2.63;;;;;;;18.78;82.60;99542.50;2212953;40;20025;-82
2021/06/29 04:51:50;;;;;;;5.78;2.47;;;;;;;18.79;82.42;99543.31;2208593;40;20030;-82
2021/06/29 04:53:22;;;;;;;6.82;2.97;;;;;;;18.76;82.02;99536.47;2208198;40;20050;-81
2021/06/29 04:54:53;;;;;;;5.13;2.60;;;;;;;18.75;82.28;99534.81;2214291;40;20030;-81
2021/06/29 04:56:25;;;;;;;4.28;2.70;;;;;;;18.75;81.86;99532.09;2215144;40;20038;-81
2021/06/29 04:57:56;;;;;;;6.10;4.00;;;;;;;18.78;81.98;99526.25;2212306;40;20048;-81
2021/06/29 04:59:29;;;;;;;5.38;3.00;;;;;;;18.80;82.23;99526.88;2215490;40;20022;-82
2021/06/29 05:01:00;;;;;;;5.43;2.80;;;;;;;18.80;82.24;99523.34;2215508;40;20045;-85
2021/06/29 05:02:31;;;;;;;5.50;2.70;;;;;;;18.76;82.19;99532.91;2214518;40;20433;-81
2021/06/29 05:04:03;;;;;;;5.07;2.80;;;;;;;18.80;81.99;99548.53;2214823;40;20030;-83
2021/06/29 05:05:35;;;;;;;4.03;2.38;;;;;;;18.86;81.87;99555.81;2214041;40;20044;-80
2021/06/29 05:07:07;;;;;;;5.68;2.75;;;;;;;18.93;81.94;99557.72;2211044;40;20042;-81
2021/06/29 05:08:38;;;;;;;5.65;2.60;;;;;;;18.97;81.90;99550.84;2213108;40;20033;-81
2021/06/29 05:10:11;;;;;;;6.63;3.78;;;;;;;19.02;81.84;99560.00;2210577;40;20029;-81
2021/06/29 05:11:43;;;;;;;4.60;2.70;;;;;;;19.06;81.49;99565.81;2209163;40;20053;-81
2021/06/29 05:13:13;;;;;;;4.45;2.45;;;;;;;19.10;81.62;99556.19;2209260;40;20042;-80
2021/06/29 05:14:47;;;;;;;5.50;2.55;;;;;;;19.10;81.14;99552.66;2208364;40;20089;-80
2021/06/29 05:16:18;;;;;;;5.35;2.67;;;;;;;19.09;81.14;99551.81;2212754;40;20386;-80
2021/06/29 05:17:49;;;;;;;7.28;3.05;;;;;;;19.09;80.70;99548.28;2214408;40;20030;-81
2021/06/29 05:19:21;;;;;;;5.15;2.53;;;;;;;19.06;80.78;99554.13;2213428;40;20361;-80
2021/06/29 05:20:54;;;;;;;4.15;2.60;;;;;;;19.04;80.98;99573.31;2212015;40;20050;-82
2021/06/29 05:22:26;;;;;;;21.98;4.35;;;;;;;19.00;80.86;99572.06;2217963;40;20052;-80
2021/06/29 05:23:57;;;;;;;7.38;3.00;;;;;;;18.99;81.22;99575.81;2215110;40;20022;-79
2021/06/29 05:25:31;;;;;;;4.60;2.80;;;;;;;19.01;81.38;99563.75;2217585;40;20097;-81
2021/06/29 05:27:04;;;;;;;5.65;3.40;;;;;;;19.01;81.25;99571.88;2219183;40;20607;-82
2021/06/29 05:28:35;;;;;;;6.13;3.03;;;;;;;19.00;81.24;99569.34;2219043;40;20029;-81
2021/06/29 05:30:10;;;;;;;6.78;4.00;;;;;;;18.99;81.36;99564.97;2219783;40;20036;-80
2021/06/29 05:31:42;;;;;;;6.40;3.25;;;;;;;18.96;81.22;99571.66;2218312;40;20046;-81
2021/06/29 05:33:14;;;;;;;7.10;3.20;;;;;;;18.97;81.19;99561.66;2220467;40;20036;-84
2021/06/29 05:34:46;;;;;;;5.18;2.60;;;;;;;19.04;81.28;99564.34;2218884;40;20362;-81
2021/06/29 05:36:18;;;;;;;4.35;2.50;;;;;;;19.08;80.97;99568.31;2219222;40;20030;-81
2021/06/29 05:37:50;;;;;;;4.22;2.95;;;;;;;19.11;80.89;99571.41;2219029;40;20050;-81
2021/06/29 05:39:22;;;;;;;5.03;3.00;;;;;;;19.17;80.69;99564.31;2217654;40;20032;-80
2021/06/29 05:40:52;;;;;;;5.53;3.05;;;;;;;19.20;80.47;99557.63;2218418;40;20049;-81
2021/06/29 05:42:24;;;;;;;4.40;2.50;;;;;;;19.25;80.28;99557.84;2217749;40;20036;-82
2021/06/29 05:43:56;;;;;;;6.45;2.50;;;;;;;19.28;79.96;99546.56;2218895;40;20050;-81
2021/06/29 05:45:29;;;;;;;4.20;2.42;;;;;;;19.27;79.75;99553.88;2217741;40;20041;-82
2021/06/29 05:47:04;;;;;;;4.63;2.72;;;;;;;19.28;79.58;99551.97;2219882;40;20117;-80
2021/06/29 05:48:36;;;;;;;5.00;2.33;;;;;;;19.28;79.36;99551.97;2216231;40;20400;-80
2021/06/29 05:50:09;;;;;;;5.15;2.40;;;;;;;19.31;78.95;99546.97;2215036;40;20061;-80
2021/06/29 05:51:45;;;;;;;4.78;2.10;;;;;;;19.35;78.81;99549.25;2217979;40;20045;-80
2021/06/29 05:53:17;;;;;;;5.40;3.60;;;;;;;19.42;78.93;99547.31;2217946;40;20283;-80
2021/06/29 05:54:48;;;;;;;9.10;3.00;;;;;;;19.43;78.47;99541.72;2218030;40;20025;-80
2021/06/29 05:56:20;;;;;;;5.63;2.53;;;;;;;19.37;78.18;99539.84;2218305;40;20060;-80
2021/06/29 05:57:51;;;;;;;6.70;2.60;;;;;;;19.33;77.66;99541.34;2218368;40;20037;-81
2021/06/29 05:59:22;;;;;;;4.65;2.50;;;;;;;19.28;77.81;99524.88;2218235;40;20036;-80
2021/06/29 06:00:56;;;;;;;7.47;3.17;;;;;;;19.27;77.62;99512.41;2218126;40;20037;-81
2021/06/29 06:02:26;;;;;;;4.97;2.75;;;;;;;19.22;78.48;99509.50;2219498;40;20025;-80
2021/06/29 06:03:58;;;;;;;7.75;5.43;;;;;;;19.16;79.21;99514.72;2218643;40;20038;-80
2021/06/29 06:05:30;;;;;;;6.05;3.20;;;;;;;19.13;79.16;99520.56;2219159;40;20545;-81
2021/06/29 06:07:01;;;;;;;4.82;2.80;;;;;;;19.17;79.48;99521.81;2217544;40;20034;-80
2021/06/29 06:08:32;;;;;;;5.40;2.75;;;;;;;19.26;79.21;99510.72;2214339;40;20030;-80
2021/06/29 06:10:05;;;;;;;4.30;2.80;;;;;;;19.29;79.05;99513.00;2216047;40;20045;-80
2021/06/29 06:11:36;;;;;;;6.10;2.90;;;;;;;19.30;78.71;99506.53;2219294;40;20048;-80
2021/06/29 06:13:08;;;;;;;7.63;3.20;;;;;;;19.29;78.71;99497.59;2214153;40;20109;-80
2021/06/29 06:14:41;;;;;;;7.10;3.25;;;;;;;19.31;79.20;99502.78;2214190;40;20513;-82
2021/06/29 06:16:16;;;;;;;4.32;2.65;;;;;;;19.36;79.14;99510.25;2212281;40;20110;-80
2021/06/29 06:17:47;;;;;;;4.20;2.78;;;;;;;19.41;78.84;99511.28;2216741;40;20026;-81
2021/06/29 06:19:19;;;;;;;4.97;2.58;;;;;;;19.48;78.52;99519.38;2218179;40;20029;-81
2021/06/29 06:20:52;;;;;;;4.68;2.53;;;;;;;19.53;78.15;99508.72;2214267;40;20022;-80
2021/06/29 06:22:24;;;;;;;7.45;3.00;;;;;;;19.59;77.53;99509.72;2213540;40;20049;-80
2021/06/29 06:23:56;;;;;;;4.03;2.30;;;;;;;19.58;76.93;99513.47;2214598;40;20058;-80
2021/06/29 06:25:27;;;;;;;6.95;3.40;;;;;;;19.60;76.84;99504.06;2220563;40;20034;-80
2021/06/29 06:26:59;;;;;;;4.95;2.35;;;;;;;19.63;76.48;99513.69;2218691;40;20465;-80
2021/06/29 06:28:31;;;;;;;4.85;3.17;;;;;;;19.63;76.09;99519.09;2217632;40;20041;-81
2021/06/29 06:30:05;;;;;;;5.10;2.70;;;;;;;19.63;76.24;99516.38;2216472;40;20033;-80
2021/06/29 06:31:57;;;;;;;4.43;2.65;;;;;;;19.69;76.10;99515.50;2212321;40;20046;-81
2021/06/29 06:33:28;;;;;;;4.57;2.30;;;;;;;19.76;75.87;99516.28;2214198;40;20049;-81
2021/06/29 06:35:00;;;;;;;4.97;2.40;;;;;;;19.82;75.45;99517.31;2211985;40;20310;-81
2021/06/29 06:36:32;;;;;;;6.40;2.65;;;;;;;19.84;75.02;99531.47;2211670;40;20037;-81
2021/06/29 06:38:04;;;;;;;4.63;3.10;;;;;;;19.86;75.28;99525.84;2212044;40;20034;-82
2021/06/29 06:39:36;;;;;;;5.28;2.40;;;;;;;19.91;75.63;99523.34;2213789;40;20068;-80
2021/06/29 06:41:13;;;;;;;4.40;2.15;;;;;;;19.99;75.11;99524.94;2217366;40;20062;-81
2021/06/29 06:42:46;;;;;;;5.63;2.22;;;;;;;20.09;75.01;99518.00;2211137;40;20038;-83
2021/06/29 06:44:18;;;;;;;4.30;2.10;;;;;;;20.16;74.84;99523.38;2212084;40;20041;-83
2021/06/29 06:45:50;;;;;;;4.15;2.10;;;;;;;20.20;74.63;99521.03;2214623;40;20049;-82
2021/06/29 06:47:23;;;;;;;3.30;1.90;;;;;;;20.25;74.59;99519.34;2213293;40;20037;-82
2021/06/29 06:48:55;;;;;;;4.90;2.17;;;;;;;20.28;74.51;99512.63;2215077;40;20311;-81
2021/06/29 06:50:27;;;;;;;7.22;2.70;;;;;;;20.34;74.63;99508.19;2217864;40;20418;-80
2021/06/29 06:51:58;;;;;;;7.03;2.70;;;;;;;20.40;74.75;99501.88;2213398;40;20038;-81
2021/06/29 06:53:30;;;;;;;4.50;2.53;;;;;;;20.49;74.59;99502.44;2214077;40;20038;-81
2021/06/29 06:55:02;;;;;;;5.47;3.30;;;;;;;20.50;74.41;99491.34;2212754;40;20050;-81
2021/06/29 06:56:34;;;;;;;6.75;3.80;;;;;;;20.48;74.42;99484.47;2217949;40;20308;-81
2021/06/29 06:58:06;;;;;;;6.57;4.35;;;;;;;20.45;74.63;99485.72;2214606;40;20092;-81
2021/06/29 06:59:38;;;;;;;6.18;3.60;;;;;;;20.45;74.64;99480.31;2216279;40;20038;-81
2021/06/29 07:01:09;;;;;;;6.93;3.63;;;;;;;20.50;74.49;99476.94;2212000;40;20054;-80
2021/06/29 07:02:44;;;;;;;5.18;3.55;;;;;;;20.54;74.09;99475.44;2216783;40;20115;-81
2021/06/29 07:04:18;;;;;;;5.63;3.53;;;;;;;20.62;73.67;99480.56;2217867;40;20053;-82
2021/06/29 07:05:50;;;;;;;6.43;3.83;;;;;;;20.68;73.42;99476.97;2219759;40;20029;-81
2021/06/29 07:07:21;;;;;;;6.07;3.20;;;;;;;20.77;73.23;99482.94;2218496;40;20034;-82
2021/06/29 07:08:53;;;;;;;4.03;2.58;;;;;;;20.84;73.06;99486.41;2216878;40;20048;-81
2021/06/29 07:10:25;;;;;;;8.15;4.78;;;;;;;20.93;72.95;99486.94;2216476;40;20029;-79
2021/06/29 07:11:58;;;;;;;9.77;4.55;;;;;;;20.98;72.79;99497.13;2216964;40;20037;-80
2021/06/29 07:13:28;;;;;;;6.90;3.38;;;;;;;21.01;72.69;99500.22;2215226;40;20337;-81
2021/06/29 07:15:02;;;;;;;5.80;2.72;;;;;;;21.07;72.14;99503.06;2216020;40;20059;-82
2021/06/29 07:16:33;;;;;;;4.57;2.60;;;;;;;21.14;71.26;99495.69;2211784;40;20042;-80
2021/06/29 07:18:07;;;;;;;4.13;2.70;;;;;;;21.20;70.76;99486.63;2214406;40;20030;-80
2021/06/29 07:19:39;;;;;;;6.78;2.15;;;;;;;21.23;69.96;99491.63;2218354;40;20309;-80
2021/06/29 07:21:11;;;;;;;4.55;2.15;;;;;;;21.25;69.03;99486.78;2217283;40;20127;-79